createdAt,value
2018-03-18T00:01:19.528Z,0.10
2018-03-18T00:03:47.095Z,0.10
2018-03-18T00:06:15.014Z,0.10
2018-03-18T00:08:42.525Z,0.20
2018-03-18T00:11:11.156Z,0.10
2018-03-18T00:13:39.429Z,0.10
2018-03-18T00:16:07.151Z,0.10
2018-03-18T00:18:34.623Z,0.10
2018-03-18T00:21:02.162Z,0.10
2018-03-18T00:23:29.679Z,0.10
2018-03-18T00:25:58.512Z,0.10
2018-03-18T00:28:26.405Z,0.10
2018-03-18T00:30:54.286Z,0.10
2018-03-18T00:33:21.783Z,0.10
2018-03-18T00:35:49.767Z,0.00
2018-03-18T00:38:17.250Z,0.00
2018-03-18T00:40:44.733Z,0.00
2018-03-18T00:43:13.751Z,0.00
2018-03-18T00:45:41.420Z,0.00
2018-03-18T00:48:09.036Z,0.00
2018-03-18T00:50:37.295Z,0.00
2018-03-18T00:53:04.768Z,0.00
2018-03-18T00:55:32.386Z,0.00
2018-03-18T00:57:59.904Z,0.00
2018-03-18T01:00:28.145Z,0.00
2018-03-18T01:02:55.689Z,0.00
2018-03-18T01:05:23.726Z,0.10
2018-03-18T01:07:51.218Z,0.00
2018-03-18T01:10:19.032Z,0.00
2018-03-18T01:12:47.268Z,-0.10
2018-03-18T01:15:14.734Z,-0.10
2018-03-18T01:17:42.284Z,-0.10
2018-03-18T01:20:09.762Z,-0.20
2018-03-18T01:22:37.252Z,-0.20
2018-03-18T01:25:05.283Z,-0.20
2018-03-18T01:27:32.748Z,-0.10
2018-03-18T01:30:01.555Z,-0.10
2018-03-18T01:32:30.089Z,-0.10
2018-03-18T01:34:58.077Z,-0.10
2018-03-18T01:37:25.978Z,-0.10
2018-03-18T01:39:54.665Z,-0.10
2018-03-18T01:42:22.917Z,0.00
2018-03-18T01:44:50.399Z,0.00
2018-03-18T01:47:18.712Z,0.10
2018-03-18T01:49:46.292Z,0.00
2018-03-18T01:52:13.871Z,0.10
2018-03-18T01:54:41.453Z,0.00
2018-03-18T01:57:10.448Z,-0.10
2018-03-18T01:59:39.144Z,-0.20
2018-03-18T02:02:06.605Z,-0.20
2018-03-18T02:04:35.365Z,-0.30
2018-03-18T02:07:03.659Z,-0.30
2018-03-18T02:09:32.541Z,-0.30
2018-03-18T02:12:01.106Z,-0.30
2018-03-18T02:14:29.397Z,-0.30
2018-03-18T02:16:57.605Z,-0.30
2018-03-18T02:19:25.105Z,-0.40
2018-03-18T02:21:52.554Z,-0.30
2018-03-18T02:24:20.013Z,-0.30
2018-03-18T02:26:47.983Z,-0.30
2018-03-18T02:29:16.007Z,-0.30
2018-03-18T02:31:43.548Z,-0.40
2018-03-18T02:34:11.301Z,-0.30
2018-03-18T02:36:39.939Z,-0.40
2018-03-18T02:39:07.838Z,-0.50
2018-03-18T02:41:35.346Z,-0.50
2018-03-18T02:44:02.872Z,-0.50
2018-03-18T02:46:31.155Z,-0.50
2018-03-18T02:48:59.424Z,-0.60
2018-03-18T02:51:27.078Z,-0.60
2018-03-18T02:53:55.319Z,-0.60
2018-03-18T02:56:22.901Z,-0.60
2018-03-18T02:58:50.461Z,-0.60
2018-03-18T03:01:18.878Z,-0.60
2018-03-18T03:03:46.355Z,-0.60
2018-03-18T03:06:17.388Z,-0.60
2018-03-18T03:08:46.201Z,-0.60
2018-03-18T03:11:14.068Z,-0.70
2018-03-18T03:13:42.251Z,-0.70
2018-03-18T03:16:09.741Z,-0.70
2018-03-18T03:18:38.451Z,-0.60
2018-03-18T03:21:05.924Z,-0.70
2018-03-18T03:23:33.393Z,-0.70
2018-03-18T03:26:01.343Z,-0.70
2018-03-18T03:28:28.814Z,-0.70
2018-03-18T03:30:56.689Z,-0.70
2018-03-18T03:33:24.194Z,-0.70
2018-03-18T03:35:52.840Z,-0.70
2018-03-18T03:38:20.718Z,-0.70
2018-03-18T03:40:48.936Z,-0.80
2018-03-18T03:43:16.424Z,-0.80
2018-03-18T03:45:43.917Z,-0.80
2018-03-18T03:48:12.669Z,-0.90
2018-03-18T03:50:40.125Z,-0.90
2018-03-18T03:53:07.653Z,-0.90
2018-03-18T03:55:35.086Z,-0.90
2018-03-18T03:58:02.557Z,-0.90
2018-03-18T04:00:30.123Z,-0.90
2018-03-18T04:02:57.674Z,-0.90
2018-03-18T04:05:25.398Z,-1.00
2018-03-18T04:07:53.600Z,-1.10
2018-03-18T04:10:21.740Z,-1.10
2018-03-18T04:12:49.191Z,-1.10
2018-03-18T04:15:17.148Z,-1.10
2018-03-18T04:17:44.588Z,-1.10
2018-03-18T04:20:12.482Z,-1.00
2018-03-18T04:22:39.928Z,-1.00
2018-03-18T04:25:07.648Z,-1.00
2018-03-18T04:27:35.097Z,-1.00
2018-03-18T04:30:02.741Z,-1.00
2018-03-18T04:32:30.949Z,-1.00
2018-03-18T04:34:59.781Z,-1.00
2018-03-18T04:37:27.744Z,-1.00
2018-03-18T04:39:55.610Z,-1.00
2018-03-18T04:42:23.131Z,-1.00
2018-03-18T04:44:50.591Z,-1.00
2018-03-18T04:47:18.280Z,-1.10
2018-03-18T04:49:45.733Z,-1.10
2018-03-18T04:52:13.455Z,-1.10
2018-03-18T04:54:41.409Z,-1.10
2018-03-18T04:57:09.661Z,-1.10
2018-03-18T04:59:37.692Z,-1.20
2018-03-18T05:02:05.178Z,-1.10
2018-03-18T05:04:32.945Z,-1.10
2018-03-18T05:07:00.436Z,-1.10
2018-03-18T05:09:28.629Z,-1.10
2018-03-18T05:11:56.334Z,-1.10
2018-03-18T05:14:23.798Z,-1.10
2018-03-18T05:16:51.309Z,-1.10
2018-03-18T05:19:19.360Z,-1.10
2018-03-18T05:21:46.871Z,-1.10
2018-03-18T05:24:14.342Z,-1.20
2018-03-18T05:26:42.473Z,-1.20
2018-03-18T05:29:09.927Z,-1.20
2018-03-18T05:31:37.620Z,-1.20
2018-03-18T05:34:05.057Z,-1.20
2018-03-18T05:36:33.143Z,-1.20
2018-03-18T05:39:00.929Z,-1.30
2018-03-18T05:41:28.404Z,-1.30
2018-03-18T05:43:56.636Z,-1.30
2018-03-18T05:46:24.507Z,-1.30
2018-03-18T05:48:52.279Z,-1.30
2018-03-18T05:51:19.747Z,-1.20
2018-03-18T05:53:47.203Z,-1.20
2018-03-18T05:56:15.499Z,-1.10
2018-03-18T05:58:44.277Z,-1.10
2018-03-18T06:01:12.530Z,-1.10
2018-03-18T06:03:39.987Z,-1.10
2018-03-18T06:06:07.713Z,-1.10
2018-03-18T06:08:35.162Z,-1.10
2018-03-18T06:11:03.032Z,-1.00
2018-03-18T06:13:30.591Z,-1.00
2018-03-18T06:15:58.148Z,-1.00
2018-03-18T06:18:25.590Z,-1.00
2018-03-18T06:20:53.472Z,-1.00
2018-03-18T06:23:20.909Z,-1.00
2018-03-18T06:25:48.794Z,-1.00
2018-03-18T06:28:16.592Z,-1.00
2018-03-18T06:30:44.566Z,-1.00
2018-03-18T06:33:12.237Z,-1.00
2018-03-18T06:35:40.102Z,-0.90
2018-03-18T06:38:08.169Z,-0.90
2018-03-18T06:40:35.625Z,-0.90
2018-03-18T06:43:03.948Z,-0.90
2018-03-18T06:45:31.521Z,-1.00
2018-03-18T06:47:58.970Z,-1.00
2018-03-18T06:50:26.445Z,-1.00
2018-03-18T06:52:53.904Z,-1.00
2018-03-18T06:55:21.734Z,-1.00
2018-03-18T06:57:49.172Z,-1.10
2018-03-18T07:00:17.448Z,-1.20
2018-03-18T07:02:45.851Z,-1.20
2018-03-18T07:05:13.872Z,-1.20
2018-03-18T07:07:41.393Z,-1.10
2018-03-18T07:10:09.146Z,-1.10
2018-03-18T07:12:36.617Z,-1.10
2018-03-18T07:15:04.210Z,-1.10
2018-03-18T07:17:31.701Z,-1.10
2018-03-18T07:19:59.962Z,-1.00
2018-03-18T07:22:27.610Z,-1.10
2018-03-18T07:24:55.445Z,-1.10
2018-03-18T07:27:22.922Z,-1.10
2018-03-18T07:29:50.788Z,-1.10
2018-03-18T07:32:18.493Z,-1.10
2018-03-18T07:34:46.415Z,-1.10
2018-03-18T07:37:13.924Z,-1.00
2018-03-18T07:39:41.745Z,-1.00
2018-03-18T07:42:09.252Z,-1.00
2018-03-18T07:44:36.660Z,-1.00
2018-03-18T07:47:04.133Z,-1.00
2018-03-18T07:49:32.348Z,-1.00
2018-03-18T07:51:59.913Z,-1.00
2018-03-18T07:54:27.366Z,-1.00
2018-03-18T07:56:55.477Z,-0.90
2018-03-18T07:59:22.950Z,-0.90
2018-03-18T08:01:50.417Z,-0.90
2018-03-18T08:04:19.177Z,-0.80
2018-03-18T08:06:46.702Z,-0.80
2018-03-18T08:09:14.291Z,-0.70
2018-03-18T08:11:42.077Z,-0.70
2018-03-18T08:14:10.339Z,-0.60
2018-03-18T08:16:37.994Z,-0.60
2018-03-18T08:19:05.439Z,-0.70
2018-03-18T08:21:33.079Z,-0.60
2018-03-18T08:24:00.541Z,-0.60
2018-03-18T08:26:28.050Z,-0.60
2018-03-18T08:28:56.821Z,-0.50
2018-03-18T08:31:24.333Z,-0.50
2018-03-18T08:33:52.038Z,-0.40
2018-03-18T08:36:19.962Z,-0.40
2018-03-18T08:38:47.970Z,-0.30
2018-03-18T08:41:15.450Z,-0.20
2018-03-18T08:43:43.661Z,-0.10
2018-03-18T08:46:11.193Z,-0.10
2018-03-18T08:48:39.400Z,0.00
2018-03-18T08:51:07.102Z,0.00
2018-03-18T08:53:34.585Z,0.00
2018-03-18T08:56:02.800Z,0.00
2018-03-18T08:58:30.393Z,-0.10
2018-03-18T09:00:58.147Z,0.00
2018-03-18T09:03:25.625Z,0.00
2018-03-18T09:05:54.488Z,-0.10
2018-03-18T09:08:21.954Z,-0.10
2018-03-18T09:10:49.721Z,-0.10
2018-03-18T09:13:17.470Z,0.00
2018-03-18T09:15:44.922Z,0.00
2018-03-18T09:18:12.616Z,0.10
2018-03-18T09:20:40.057Z,0.20
2018-03-18T09:23:07.561Z,0.40
2018-03-18T09:25:35.002Z,0.50
2018-03-18T09:28:03.310Z,0.60
2018-03-18T09:30:31.111Z,0.60
2018-03-18T09:32:58.895Z,0.70
2018-03-18T09:35:26.544Z,0.80
2018-03-18T09:37:54.516Z,0.90
2018-03-18T09:40:21.994Z,0.90
2018-03-18T09:42:50.286Z,1.10
2018-03-18T09:45:18.327Z,1.00
2018-03-18T09:47:46.561Z,1.10
2018-03-18T09:50:14.092Z,1.00
2018-03-18T09:52:41.562Z,1.00
2018-03-18T09:55:09.271Z,1.10
2018-03-18T09:57:36.873Z,1.10
2018-03-18T10:00:04.548Z,1.10
2018-03-18T10:02:32.406Z,1.10
2018-03-18T10:05:00.281Z,1.10
2018-03-18T10:07:29.763Z,1.10
2018-03-18T10:09:58.667Z,1.10
2018-03-18T10:12:26.186Z,1.10
2018-03-18T10:14:53.899Z,1.10
2018-03-18T10:17:22.242Z,1.10
2018-03-18T10:19:50.495Z,1.20
2018-03-18T10:22:18.729Z,1.30
2018-03-18T10:24:46.902Z,1.30
2018-03-18T10:27:15.117Z,1.40
2018-03-18T10:29:42.812Z,1.60
2018-03-18T10:32:11.267Z,1.60
2018-03-18T10:34:40.249Z,1.60
2018-03-18T10:37:08.072Z,1.60
2018-03-18T10:39:36.129Z,1.50
2018-03-18T10:42:04.096Z,1.50
2018-03-18T10:44:31.686Z,1.40
2018-03-18T10:47:01.071Z,1.40
2018-03-18T10:49:30.294Z,1.40
2018-03-18T10:51:58.953Z,1.40
2018-03-18T10:54:26.657Z,1.40
2018-03-18T10:56:54.241Z,1.50
2018-03-18T10:59:21.988Z,1.50
2018-03-18T11:02:06.191Z,1.50
2018-03-18T11:04:34.572Z,1.50
2018-03-18T11:07:02.096Z,1.50
2018-03-18T11:09:29.659Z,1.60
2018-03-18T11:11:57.959Z,1.70
2018-03-18T11:14:25.413Z,1.90
2018-03-18T11:16:53.152Z,2.00
2018-03-18T11:19:21.133Z,2.10
2018-03-18T11:21:48.630Z,2.20
2018-03-18T11:24:16.057Z,2.20
2018-03-18T11:26:43.580Z,2.30
2018-03-18T11:29:11.825Z,2.50
2018-03-18T11:31:39.321Z,2.40
2018-03-18T11:34:07.136Z,2.60
2018-03-18T11:36:35.377Z,2.60
2018-03-18T11:39:02.943Z,2.70
2018-03-18T11:41:30.655Z,2.70
2018-03-18T11:43:58.208Z,2.90
2018-03-18T11:46:25.661Z,3.10
2018-03-18T11:48:54.425Z,3.30
2018-03-18T11:51:21.893Z,3.40
2018-03-18T11:53:49.839Z,3.40
2018-03-18T11:56:17.296Z,3.40
2018-03-18T11:58:44.804Z,3.30
2018-03-18T12:01:12.690Z,3.50
2018-03-18T12:03:40.892Z,3.80
2018-03-18T12:06:08.804Z,3.80
2018-03-18T12:08:48.211Z,3.90
2018-03-18T12:11:15.944Z,4.00
2018-03-18T12:13:43.468Z,4.00
2018-03-18T12:16:11.077Z,4.30
2018-03-18T12:18:38.520Z,4.50
2018-03-18T12:21:06.010Z,4.70
2018-03-18T12:23:33.901Z,5.00
2018-03-18T12:26:02.480Z,5.40
2018-03-18T12:28:30.459Z,5.40
2018-03-18T12:30:58.736Z,5.70
2018-03-18T12:33:26.893Z,5.60
2018-03-18T12:35:54.870Z,5.80
2018-03-18T12:38:22.326Z,6.00
2018-03-18T12:40:51.400Z,6.30
2018-03-18T12:43:31.758Z,6.50
2018-03-18T12:45:59.817Z,6.60
2018-03-18T12:48:27.350Z,6.60
2018-03-18T12:50:55.070Z,6.70
2018-03-18T12:53:22.520Z,6.70
2018-03-18T12:55:50.401Z,6.60
2018-03-18T12:58:18.733Z,6.50
2018-03-18T13:00:46.634Z,6.50
2018-03-18T13:03:14.097Z,6.60
2018-03-18T13:05:42.046Z,6.80
2018-03-18T13:08:09.917Z,6.90
2018-03-18T13:10:38.009Z,6.90
2018-03-18T13:13:05.517Z,6.90
2018-03-18T13:22:18.510Z,6.80
2018-03-18T13:24:46.426Z,6.80
2018-03-18T13:27:15.229Z,7.10
2018-03-18T13:29:42.691Z,7.10
2018-03-18T13:32:10.158Z,7.30
2018-03-18T13:34:38.311Z,7.20
2018-03-18T13:37:05.770Z,7.10
2018-03-18T13:39:33.589Z,7.20
2018-03-18T13:42:01.039Z,7.30
2018-03-18T13:44:28.755Z,7.40
2018-03-18T13:46:56.217Z,7.50
2018-03-18T13:49:24.018Z,7.70
2018-03-18T13:51:51.466Z,7.90
2018-03-18T13:54:18.973Z,7.90
2018-03-18T13:56:46.428Z,7.80
2018-03-18T13:59:13.944Z,8.00
2018-03-18T14:01:42.031Z,8.10
2018-03-18T14:04:11.045Z,8.30
2018-03-18T14:06:39.264Z,8.30
2018-03-18T14:09:07.182Z,8.30
2018-03-18T14:11:35.795Z,8.60
2018-03-18T14:14:03.277Z,8.50
2018-03-18T14:16:30.735Z,8.60
2018-03-18T14:18:58.196Z,8.60
2018-03-18T14:21:25.674Z,8.60
2018-03-18T14:23:53.531Z,8.50
2018-03-18T14:26:21.025Z,8.40
2018-03-18T14:28:49.483Z,8.30
2018-03-18T14:31:17.703Z,8.20
2018-03-18T14:33:45.186Z,8.20
2018-03-18T14:36:13.104Z,7.90
2018-03-18T14:38:40.928Z,7.70
2018-03-18T14:41:08.380Z,7.50
2018-03-18T14:43:36.249Z,7.30
2018-03-18T14:46:03.737Z,7.20
2018-03-18T14:48:32.069Z,7.30
2018-03-18T14:50:59.651Z,7.30
2018-03-18T14:53:27.894Z,7.10
2018-03-18T14:55:55.378Z,7.10
2018-03-18T14:58:23.036Z,7.20
2018-03-18T15:00:51.109Z,7.30
2018-03-18T15:03:20.069Z,7.40
2018-03-18T15:05:50.767Z,7.40
2018-03-18T15:08:18.221Z,7.50
2018-03-18T15:10:46.742Z,7.70
2018-03-18T15:13:14.717Z,7.70
2018-03-18T15:15:42.220Z,7.70
2018-03-18T15:18:09.719Z,7.80
2018-03-18T15:20:37.611Z,7.70
2018-03-18T15:23:05.053Z,7.60
2018-03-18T15:25:32.555Z,7.70
2018-03-18T15:28:00.658Z,7.60
2018-03-18T15:30:28.454Z,7.60
2018-03-18T15:32:56.269Z,7.70
2018-03-18T15:35:24.201Z,7.70
2018-03-18T15:37:51.642Z,7.70
2018-03-18T15:40:19.666Z,7.80
2018-03-18T15:42:47.113Z,7.80
2018-03-18T15:45:15.404Z,7.80
2018-03-18T15:47:42.876Z,7.70
2018-03-18T15:50:10.786Z,7.70
2018-03-18T15:52:38.226Z,7.70
2018-03-18T15:55:05.694Z,7.60
2018-03-18T15:57:33.146Z,7.50
2018-03-18T16:00:00.620Z,7.50
2018-03-18T16:02:28.636Z,7.50
2018-03-18T16:04:56.520Z,7.40
2018-03-18T16:07:24.521Z,7.40
2018-03-18T16:09:51.994Z,7.10
2018-03-18T16:12:20.485Z,6.80
2018-03-18T16:14:49.231Z,6.60
2018-03-18T16:17:16.697Z,6.60
2018-03-18T16:19:45.479Z,6.20
2018-03-18T16:22:12.924Z,6.20
2018-03-18T16:24:40.522Z,6.10
2018-03-18T16:27:09.134Z,5.70
2018-03-18T16:29:48.398Z,5.70
2018-03-18T16:32:15.917Z,5.50
2018-03-18T16:34:43.945Z,5.40
2018-03-18T16:37:11.415Z,5.30
2018-03-18T16:39:38.892Z,5.20
2018-03-18T16:42:07.104Z,5.00
2018-03-18T16:44:34.575Z,5.00
2018-03-18T16:47:02.020Z,4.90
2018-03-18T16:49:29.808Z,4.80
2018-03-18T16:51:57.251Z,4.70
2018-03-18T16:54:25.856Z,4.50
2018-03-18T16:56:53.353Z,4.50
2018-03-18T16:59:20.927Z,4.10
2018-03-18T17:01:48.918Z,4.20
2018-03-18T17:04:16.885Z,4.10
2018-03-18T17:06:44.341Z,4.00
2018-03-18T17:09:11.825Z,4.00
2018-03-18T17:11:39.684Z,4.00
2018-03-18T17:14:07.129Z,4.00
2018-03-18T17:16:35.505Z,3.90
2018-03-18T17:19:02.982Z,3.90
2018-03-18T17:21:31.753Z,3.90
2018-03-18T17:23:59.218Z,3.90
2018-03-18T17:26:26.704Z,3.90
2018-03-18T17:28:55.346Z,3.80
2018-03-18T17:31:22.797Z,3.80
2018-03-18T17:33:50.265Z,3.80
2018-03-18T17:36:18.159Z,3.80
2018-03-18T17:38:46.371Z,3.80
2018-03-18T17:41:14.105Z,3.80
2018-03-18T17:43:41.625Z,3.80
2018-03-18T17:46:21.273Z,3.70
2018-03-18T17:49:00.580Z,3.70
2018-03-18T17:51:40.040Z,3.70
2018-03-18T17:54:19.442Z,3.70
2018-03-18T17:56:47.033Z,3.70
2018-03-18T17:59:15.522Z,3.70
2018-03-18T18:01:43.415Z,3.60
2018-03-18T18:04:11.522Z,3.60
2018-03-18T18:06:39.021Z,3.60
2018-03-18T18:09:08.016Z,3.50
2018-03-18T18:11:35.776Z,3.50
2018-03-18T18:14:03.242Z,3.40
2018-03-18T18:16:30.722Z,3.30
2018-03-18T18:18:58.254Z,3.30
2018-03-18T18:21:25.705Z,3.20
2018-03-18T18:23:53.166Z,3.20
2018-03-18T18:26:20.718Z,3.20
2018-03-18T18:28:50.141Z,3.10
2018-03-18T18:31:18.720Z,3.10
2018-03-18T18:33:47.589Z,3.10
2018-03-18T18:36:15.507Z,3.10
2018-03-18T18:38:42.947Z,3.10
2018-03-18T18:41:11.208Z,3.10
2018-03-18T18:43:38.865Z,3.10
2018-03-18T18:46:07.137Z,3.20
2018-03-18T18:48:34.576Z,3.20
2018-03-18T18:51:02.106Z,3.20
2018-03-18T18:53:29.696Z,3.20
2018-03-18T18:55:57.970Z,3.20
2018-03-18T18:58:25.599Z,3.20
2018-03-18T19:00:53.460Z,3.20
2018-03-18T19:03:20.906Z,3.20
2018-03-18T19:05:49.033Z,3.10
2018-03-18T19:08:16.902Z,3.10
2018-03-18T19:10:44.587Z,3.10
2018-03-18T19:13:12.892Z,3.10
2018-03-18T19:15:40.354Z,3.00
2018-03-18T19:18:08.384Z,3.10
2018-03-18T19:20:35.874Z,3.10
2018-03-18T19:23:03.426Z,3.00
2018-03-18T19:25:30.895Z,3.00
2018-03-18T19:27:58.948Z,2.90
2018-03-18T19:30:26.861Z,2.90
2018-03-18T19:32:54.342Z,2.90
2018-03-18T19:35:23.016Z,3.00
2018-03-18T19:37:50.974Z,3.00
2018-03-18T19:40:18.941Z,3.00
2018-03-18T19:42:46.427Z,3.10
2018-03-18T19:45:14.901Z,3.20
2018-03-18T19:47:43.228Z,3.30
2018-03-18T19:50:10.666Z,3.30
2018-03-18T19:52:38.139Z,3.30
2018-03-18T19:55:06.373Z,3.30
2018-03-18T19:57:34.675Z,3.30
2018-03-18T20:00:02.578Z,3.30
2018-03-18T20:02:30.365Z,3.30
2018-03-18T20:04:58.285Z,3.20
2018-03-18T20:07:25.744Z,3.20
2018-03-18T20:09:53.236Z,3.20
2018-03-18T20:12:20.923Z,3.00
2018-03-18T20:14:49.772Z,2.90
2018-03-18T20:17:17.245Z,2.90
2018-03-18T20:19:44.701Z,2.90
2018-03-18T20:22:12.355Z,2.80
2018-03-18T20:24:41.314Z,2.80
2018-03-18T20:27:09.066Z,2.80
2018-03-18T20:29:36.948Z,2.70
2018-03-18T20:32:04.461Z,2.70
2018-03-18T20:34:33.543Z,2.70
2018-03-18T20:37:01.416Z,2.70
2018-03-18T20:39:29.625Z,2.70
2018-03-18T20:41:57.089Z,2.60
2018-03-18T20:44:25.821Z,2.70
2018-03-18T20:46:53.271Z,2.70
2018-03-18T20:49:20.741Z,2.60
2018-03-18T20:51:48.763Z,2.60
2018-03-18T20:54:16.279Z,2.50
2018-03-18T20:56:44.497Z,2.50
2018-03-18T20:59:11.996Z,2.50
2018-03-18T21:01:39.892Z,2.50
2018-03-18T21:04:07.930Z,2.50
2018-03-18T21:06:35.859Z,2.50
2018-03-18T21:09:03.298Z,2.50
2018-03-18T21:11:31.122Z,2.40
2018-03-18T21:13:58.667Z,2.40
2018-03-18T21:16:26.124Z,2.50
2018-03-18T21:18:53.781Z,2.40
2018-03-18T21:21:21.352Z,2.40
2018-03-18T21:23:49.181Z,2.40
2018-03-18T21:26:16.630Z,2.40
2018-03-18T21:28:44.118Z,2.40
2018-03-18T21:31:12.103Z,2.40
2018-03-18T21:33:39.550Z,2.30
2018-03-18T21:36:08.217Z,2.30
2018-03-18T21:38:36.100Z,2.30
2018-03-18T21:41:03.604Z,2.30
2018-03-18T21:43:31.040Z,2.20
2018-03-18T21:45:59.282Z,2.20
2018-03-18T21:48:26.723Z,2.20
2018-03-18T21:50:54.501Z,2.20
2018-03-18T21:53:21.952Z,2.20
2018-03-18T21:55:49.624Z,2.20
2018-03-18T21:58:17.072Z,2.20
2018-03-18T22:00:44.944Z,2.20
2018-03-18T22:03:12.396Z,2.10
2018-03-18T22:05:40.306Z,2.10
2018-03-18T22:08:08.519Z,2.10
2018-03-18T22:10:36.586Z,2.10
2018-03-18T22:13:04.074Z,2.10
2018-03-18T22:15:31.537Z,2.10
2018-03-18T22:17:59.004Z,2.10
2018-03-18T22:20:26.616Z,2.10
2018-03-18T22:22:54.105Z,2.00
2018-03-18T22:25:23.774Z,2.00
2018-03-18T22:27:51.332Z,2.00
2018-03-18T22:30:19.137Z,2.00
2018-03-18T22:32:46.581Z,2.00
2018-03-18T22:35:14.365Z,1.90
2018-03-18T22:37:42.333Z,1.90
2018-03-18T22:40:09.836Z,1.90
2018-03-18T22:42:37.309Z,1.90
2018-03-18T22:45:04.876Z,1.90
2018-03-18T22:47:32.333Z,1.90
2018-03-18T22:50:00.137Z,1.90
2018-03-18T22:52:27.756Z,1.90
2018-03-18T22:54:55.568Z,1.90
2018-03-18T22:57:24.028Z,1.90
2018-03-18T22:59:51.483Z,1.90
2018-03-18T23:02:19.354Z,1.80
2018-03-18T23:04:47.214Z,1.80
2018-03-18T23:07:14.681Z,1.80
2018-03-18T23:09:42.174Z,1.80
2018-03-18T23:12:10.270Z,1.80
2018-03-18T23:14:37.722Z,1.80
2018-03-18T23:17:05.157Z,1.80
2018-03-18T23:19:32.635Z,1.70
2018-03-18T23:22:00.338Z,1.70
2018-03-18T23:24:28.588Z,1.70
2018-03-18T23:26:56.062Z,1.70
2018-03-18T23:29:23.546Z,1.70
2018-03-18T23:31:52.259Z,1.70
2018-03-18T23:34:20.343Z,1.70
2018-03-18T23:36:48.250Z,1.70
2018-03-18T23:39:16.009Z,1.70
2018-03-18T23:41:43.474Z,1.70
2018-03-18T23:44:11.232Z,1.60
2018-03-18T23:46:38.687Z,1.60
2018-03-18T23:49:06.139Z,1.60
2018-03-18T23:51:33.613Z,1.60
2018-03-18T23:54:02.160Z,1.60
2018-03-18T23:56:29.787Z,1.60
2018-03-18T23:58:57.365Z,1.60
